sensor_id;sensor_type;location;lat;lon;timestamp;pressure;altitude;pressure_sealevel;temperature;humidity
50302;BME280;36550;50.472;19.744;2023-05-28T00:01:28;98690.47;;;6.63;69.88
50302;BME280;36550;50.472;19.744;2023-05-28T00:04:12;98685.37;;;6.62;70.02
50302;BME280;36550;50.472;19.744;2023-05-28T00:06:57;98684.08;;;6.63;70.20
50302;BME280;36550;50.472;19.744;2023-05-28T00:09:41;98683.29;;;6.65;70.34
50302;BME280;36550;50.472;19.744;2023-05-28T00:12:25;98678.34;;;6.67;70.46
50302;BME280;36550;50.472;19.744;2023-05-28T00:15:09;98679.22;;;6.67;70.42
50302;BME280;36550;50.472;19.744;2023-05-28T00:17:54;98673.77;;;6.65;70.37
50302;BME280;36550;50.472;19.744;2023-05-28T00:20:38;98670.18;;;6.60;70.28
50302;BME280;36550;50.472;19.744;2023-05-28T00:23:22;98668.31;;;6.54;70.32
50302;BME280;36550;50.472;19.744;2023-05-28T00:26:06;98664.20;;;6.49;70.32
50302;BME280;36550;50.472;19.744;2023-05-28T00:28:50;98663.43;;;6.44;70.23
50302;BME280;36550;50.472;19.744;2023-05-28T00:31:33;98667.33;;;6.38;70.25
50302;BME280;36550;50.472;19.744;2023-05-28T00:34:17;98664.17;;;6.34;70.23
50302;BME280;36550;50.472;19.744;2023-05-28T00:37:01;98663.59;;;6.30;70.36
50302;BME280;36550;50.472;19.744;2023-05-28T00:39:45;98661.60;;;6.27;70.29
50302;BME280;36550;50.472;19.744;2023-05-28T00:42:29;98657.25;;;6.26;70.46
50302;BME280;36550;50.472;19.744;2023-05-28T00:45:13;98652.92;;;6.25;70.51
50302;BME280;36550;50.472;19.744;2023-05-28T00:47:57;98655.40;;;6.24;70.59
50302;BME280;36550;50.472;19.744;2023-05-28T00:50:42;98652.90;;;6.22;70.67
50302;BME280;36550;50.472;19.744;2023-05-28T00:53:27;98650.59;;;6.18;70.70
50302;BME280;36550;50.472;19.744;2023-05-28T00:56:12;98648.27;;;6.14;70.65
50302;BME280;36550;50.472;19.744;2023-05-28T00:58:58;98645.23;;;6.09;70.65
50302;BME280;36550;50.472;19.744;2023-05-28T01:01:44;98642.99;;;6.04;70.73
50302;BME280;36550;50.472;19.744;2023-05-28T01:04:28;98641.40;;;6.01;70.80
50302;BME280;36550;50.472;19.744;2023-05-28T01:07:15;98639.11;;;5.99;70.77
50302;BME280;36550;50.472;19.744;2023-05-28T01:10:00;98633.98;;;5.98;70.73
50302;BME280;36550;50.472;19.744;2023-05-28T01:12:44;98631.99;;;5.97;70.73
50302;BME280;36550;50.472;19.744;2023-05-28T01:15:29;98627.84;;;5.95;70.75
50302;BME280;36550;50.472;19.744;2023-05-28T01:18:13;98628.70;;;5.90;70.80
50302;BME280;36550;50.472;19.744;2023-05-28T01:21:01;98627.72;;;5.86;70.84
50302;BME280;36550;50.472;19.744;2023-05-28T01:23:47;98623.66;;;5.80;70.80
50302;BME280;36550;50.472;19.744;2023-05-28T01:26:31;98623.42;;;5.75;70.90
50302;BME280;36550;50.472;19.744;2023-05-28T01:29:16;98618.55;;;5.71;70.90
50302;BME280;36550;50.472;19.744;2023-05-28T01:32:00;98617.43;;;5.69;71.04
50302;BME280;36550;50.472;19.744;2023-05-28T01:34:44;98616.11;;;5.68;70.92
50302;BME280;36550;50.472;19.744;2023-05-28T01:37:29;98610.95;;;5.69;71.23
50302;BME280;36550;50.472;19.744;2023-05-28T01:40:16;98611.63;;;5.68;71.39
50302;BME280;36550;50.472;19.744;2023-05-28T01:43:02;98613.08;;;5.63;71.30
50302;BME280;36550;50.472;19.744;2023-05-28T01:45:46;98616.75;;;5.54;71.17
50302;BME280;36550;50.472;19.744;2023-05-28T01:48:31;98616.86;;;5.49;71.33
50302;BME280;36550;50.472;19.744;2023-05-28T01:51:25;98618.96;;;5.46;71.39
50302;BME280;36550;50.472;19.744;2023-05-28T01:54:09;98619.05;;;5.44;71.48
50302;BME280;36550;50.472;19.744;2023-05-28T01:56:53;98619.38;;;5.43;71.51
50302;BME280;36550;50.472;19.744;2023-05-28T01:59:38;98620.36;;;5.46;71.56
50302;BME280;36550;50.472;19.744;2023-05-28T02:02:23;98621.91;;;5.49;71.52
50302;BME280;36550;50.472;19.744;2023-05-28T02:05:10;98619.86;;;5.49;71.46
50302;BME280;36550;50.472;19.744;2023-05-28T02:07:54;98621.36;;;5.46;71.49
50302;BME280;36550;50.472;19.744;2023-05-28T02:10:38;98622.27;;;5.43;71.46
50302;BME280;36550;50.472;19.744;2023-05-28T02:13:21;98616.77;;;5.40;71.46
50302;BME280;36550;50.472;19.744;2023-05-28T02:16:06;98620.35;;;5.36;71.43
50302;BME280;36550;50.472;19.744;2023-05-28T02:18:51;98617.73;;;5.32;71.37
50302;BME280;36550;50.472;19.744;2023-05-28T02:21:36;98611.33;;;5.28;71.37
50302;BME280;36550;50.472;19.744;2023-05-28T02:24:19;98613.01;;;5.24;71.22
50302;BME280;36550;50.472;19.744;2023-05-28T02:27:05;98610.95;;;5.22;71.26
50302;BME280;36550;50.472;19.744;2023-05-28T02:29:49;98607.44;;;5.23;71.27
50302;BME280;36550;50.472;19.744;2023-05-28T02:32:33;98608.52;;;5.24;71.38
50302;BME280;36550;50.472;19.744;2023-05-28T02:35:17;98607.08;;;5.23;71.53
50302;BME280;36550;50.472;19.744;2023-05-28T02:38:02;98601.24;;;5.20;71.56
50302;BME280;36550;50.472;19.744;2023-05-28T02:40:46;98603.14;;;5.13;71.27
50302;BME280;36550;50.472;19.744;2023-05-28T02:43:29;98602.99;;;5.07;71.31
50302;BME280;36550;50.472;19.744;2023-05-28T02:46:13;98602.33;;;5.04;71.48
50302;BME280;36550;50.472;19.744;2023-05-28T02:48:57;98604.77;;;5.02;71.39
50302;BME280;36550;50.472;19.744;2023-05-28T02:51:41;98604.27;;;5.03;71.43
50302;BME280;36550;50.472;19.744;2023-05-28T02:54:25;98608.05;;;5.06;71.55
50302;BME280;36550;50.472;19.744;2023-05-28T02:57:09;98606.20;;;5.11;71.63
50302;BME280;36550;50.472;19.744;2023-05-28T02:59:53;98603.45;;;5.16;71.72
50302;BME280;36550;50.472;19.744;2023-05-28T03:02:37;98603.47;;;5.22;71.90
50302;BME280;36550;50.472;19.744;2023-05-28T03:05:21;98601.29;;;5.29;72.01
50302;BME280;36550;50.472;19.744;2023-05-28T03:08:04;98602.98;;;5.33;71.94
50302;BME280;36550;50.472;19.744;2023-05-28T03:10:48;98601.11;;;5.39;71.95
50302;BME280;36550;50.472;19.744;2023-05-28T03:13:32;98601.52;;;5.45;72.04
50302;BME280;36550;50.472;19.744;2023-05-28T03:16:16;98602.33;;;5.53;72.21
50302;BME280;36550;50.472;19.744;2023-05-28T03:19:00;98597.84;;;5.67;72.05
50302;BME280;36550;50.472;19.744;2023-05-28T03:21:44;98600.17;;;5.85;72.00
50302;BME280;36550;50.472;19.744;2023-05-28T03:24:28;98598.88;;;6.03;72.01
50302;BME280;36550;50.472;19.744;2023-05-28T03:27:12;98600.93;;;6.14;71.92
50302;BME280;36550;50.472;19.744;2023-05-28T03:29:56;98595.11;;;6.21;71.82
50302;BME280;36550;50.472;19.744;2023-05-28T03:32:40;98590.36;;;6.28;71.99
50302;BME280;36550;50.472;19.744;2023-05-28T03:35:24;98593.89;;;6.39;72.09
50302;BME280;36550;50.472;19.744;2023-05-28T03:38:08;98593.96;;;6.51;72.22
50302;BME280;36550;50.472;19.744;2023-05-28T03:40:52;98590.27;;;6.62;72.26
50302;BME280;36550;50.472;19.744;2023-05-28T03:43:36;98588.08;;;6.75;72.26
50302;BME280;36550;50.472;19.744;2023-05-28T03:46:20;98591.66;;;6.90;72.21
50302;BME280;36550;50.472;19.744;2023-05-28T03:49:04;98590.14;;;7.03;72.33
50302;BME280;36550;50.472;19.744;2023-05-28T03:51:48;98591.98;;;7.17;72.36
50302;BME280;36550;50.472;19.744;2023-05-28T03:54:32;98588.88;;;7.29;72.44
50302;BME280;36550;50.472;19.744;2023-05-28T03:57:16;98586.02;;;7.39;72.44
50302;BME280;36550;50.472;19.744;2023-05-28T04:00:00;98584.32;;;7.50;72.52
50302;BME280;36550;50.472;19.744;2023-05-28T04:02:44;98585.23;;;7.61;72.42
50302;BME280;36550;50.472;19.744;2023-05-28T04:05:28;98584.92;;;7.72;72.37
50302;BME280;36550;50.472;19.744;2023-05-28T04:08:12;98582.73;;;7.84;72.37
50302;BME280;36550;50.472;19.744;2023-05-28T04:10:56;98584.58;;;7.97;72.35
50302;BME280;36550;50.472;19.744;2023-05-28T04:13:40;98586.34;;;8.09;72.36
50302;BME280;36550;50.472;19.744;2023-05-28T04:16:24;98587.98;;;8.20;72.47
50302;BME280;36550;50.472;19.744;2023-05-28T04:19:08;98580.83;;;8.30;72.33
50302;BME280;36550;50.472;19.744;2023-05-28T04:21:52;98581.58;;;8.39;72.30
50302;BME280;36550;50.472;19.744;2023-05-28T04:24:36;98585.92;;;8.47;72.32
50302;BME280;36550;50.472;19.744;2023-05-28T04:27:20;98583.65;;;8.53;72.27
50302;BME280;36550;50.472;19.744;2023-05-28T04:30:05;98582.77;;;8.64;72.43
50302;BME280;36550;50.472;19.744;2023-05-28T04:32:50;98582.61;;;8.81;72.51
50302;BME280;36550;50.472;19.744;2023-05-28T04:35:37;98578.91;;;8.95;72.47
50302;BME280;36550;50.472;19.744;2023-05-28T04:38:21;98581.78;;;9.08;72.44
50302;BME280;36550;50.472;19.744;2023-05-28T04:41:05;98581.42;;;9.17;72.30
50302;BME280;36550;50.472;19.744;2023-05-28T04:43:49;98579.75;;;9.26;72.12
50302;BME280;36550;50.472;19.744;2023-05-28T04:46:33;98583.70;;;9.37;72.09
50302;BME280;36550;50.472;19.744;2023-05-28T04:49:16;98583.61;;;9.49;72.06
50302;BME280;36550;50.472;19.744;2023-05-28T04:52:00;98577.27;;;9.62;71.97
50302;BME280;36550;50.472;19.744;2023-05-28T04:54:45;98577.02;;;9.84;71.86
50302;BME280;36550;50.472;19.744;2023-05-28T04:57:29;98579.81;;;10.17;71.76
50302;BME280;36550;50.472;19.744;2023-05-28T05:00:13;98577.79;;;10.51;71.46
50302;BME280;36550;50.472;19.744;2023-05-28T05:02:57;98576.84;;;10.85;71.03
50302;BME280;36550;50.472;19.744;2023-05-28T05:05:41;98574.21;;;11.16;70.82
50302;BME280;36550;50.472;19.744;2023-05-28T05:08:25;98578.59;;;11.44;70.38
50302;BME280;36550;50.472;19.744;2023-05-28T05:11:10;98580.91;;;11.66;70.16
50302;BME280;36550;50.472;19.744;2023-05-28T05:13:54;98581.27;;;11.88;69.97
50302;BME280;36550;50.472;19.744;2023-05-28T05:16:38;98580.80;;;12.14;69.46
50302;BME280;36550;50.472;19.744;2023-05-28T05:19:22;98581.54;;;12.41;68.91
50302;BME280;36550;50.472;19.744;2023-05-28T05:22:06;98581.19;;;12.65;68.45
50302;BME280;36550;50.472;19.744;2023-05-28T05:24:50;98578.86;;;12.87;67.96
50302;BME280;36550;50.472;19.744;2023-05-28T05:27:34;98581.26;;;13.12;67.54
50302;BME280;36550;50.472;19.744;2023-05-28T05:30:19;98582.23;;;13.36;67.35
50302;BME280;36550;50.472;19.744;2023-05-28T05:33:03;98581.73;;;13.58;66.92
50302;BME280;36550;50.472;19.744;2023-05-28T05:35:47;98585.08;;;13.82;66.47
50302;BME280;36550;50.472;19.744;2023-05-28T05:38:31;98586.61;;;14.05;66.16
50302;BME280;36550;50.472;19.744;2023-05-28T05:41:15;98579.13;;;14.29;65.92
50302;BME280;36550;50.472;19.744;2023-05-28T05:43:59;98584.30;;;14.54;65.19
50302;BME280;36550;50.472;19.744;2023-05-28T05:46:43;98584.55;;;14.69;64.41
50302;BME280;36550;50.472;19.744;2023-05-28T05:49:27;98578.23;;;14.85;63.83
50302;BME280;36550;50.472;19.744;2023-05-28T05:52:11;98578.23;;;15.00;63.29
50302;BME280;36550;50.472;19.744;2023-05-28T05:54:54;98577.40;;;15.11;62.75
50302;BME280;36550;50.472;19.744;2023-05-28T05:57:39;98573.80;;;15.16;62.19
50302;BME280;36550;50.472;19.744;2023-05-28T06:00:23;98569.69;;;15.23;62.14
50302;BME280;36550;50.472;19.744;2023-05-28T06:03:07;98566.07;;;15.27;61.75
50302;BME280;36550;50.472;19.744;2023-05-28T06:05:51;98563.73;;;15.27;61.24
50302;BME280;36550;50.472;19.744;2023-05-28T06:08:35;98561.91;;;15.29;61.05
50302;BME280;36550;50.472;19.744;2023-05-28T06:11:19;98560.65;;;15.30;60.74
50302;BME280;36550;50.472;19.744;2023-05-28T06:14:03;98564.29;;;15.29;60.44
50302;BME280;36550;50.472;19.744;2023-05-28T06:16:47;98566.96;;;15.27;60.47
50302;BME280;36550;50.472;19.744;2023-05-28T06:19:32;98567.34;;;15.26;60.44
50302;BME280;36550;50.472;19.744;2023-05-28T06:22:17;98569.19;;;15.33;60.43
50302;BME280;36550;50.472;19.744;2023-05-28T06:25:02;98570.15;;;15.40;60.72
50302;BME280;36550;50.472;19.744;2023-05-28T06:27:47;98574.33;;;15.46;60.41
50302;BME280;36550;50.472;19.744;2023-05-28T06:30:31;98575.26;;;15.49;60.20
50302;BME280;36550;50.472;19.744;2023-05-28T06:33:15;98575.54;;;15.51;60.05
50302;BME280;36550;50.472;19.744;2023-05-28T06:35:58;98576.25;;;15.55;60.05
50302;BME280;36550;50.472;19.744;2023-05-28T06:38:42;98577.23;;;15.58;59.78
50302;BME280;36550;50.472;19.744;2023-05-28T06:41:26;98574.38;;;15.66;59.62
50302;BME280;36550;50.472;19.744;2023-05-28T06:44:10;98579.71;;;15.70;59.48
50302;BME280;36550;50.472;19.744;2023-05-28T06:46:54;98580.91;;;15.74;59.17
50302;BME280;36550;50.472;19.744;2023-05-28T06:49:38;98580.00;;;15.78;59.01
50302;BME280;36550;50.472;19.744;2023-05-28T06:52:23;98578.71;;;15.83;58.83
50302;BME280;36550;50.472;19.744;2023-05-28T06:55:07;98577.02;;;15.90;58.98
50302;BME280;36550;50.472;19.744;2023-05-28T06:57:52;98573.52;;;15.99;58.79
50302;BME280;36550;50.472;19.744;2023-05-28T07:00:36;98571.86;;;16.06;58.58
50302;BME280;36550;50.472;19.744;2023-05-28T07:03:20;98567.65;;;16.10;58.13
50302;BME280;36550;50.472;19.744;2023-05-28T07:06:04;98564.92;;;16.16;58.23
50302;BME280;36550;50.472;19.744;2023-05-28T07:08:49;98562.71;;;16.17;57.33
50302;BME280;36550;50.472;19.744;2023-05-28T07:11:33;98558.06;;;16.18;57.70
50302;BME280;36550;50.472;19.744;2023-05-28T07:14:17;98562.18;;;16.27;57.81
50302;BME280;36550;50.472;19.744;2023-05-28T07:17:00;98560.10;;;16.35;57.50
50302;BME280;36550;50.472;19.744;2023-05-28T07:19:45;98557.69;;;16.39;57.21
50302;BME280;36550;50.472;19.744;2023-05-28T07:22:28;98558.66;;;16.45;57.24
50302;BME280;36550;50.472;19.744;2023-05-28T07:25:12;98561.08;;;16.54;57.10
50302;BME280;36550;50.472;19.744;2023-05-28T07:27:56;98561.55;;;16.65;56.78
50302;BME280;36550;50.472;19.744;2023-05-28T07:30:41;98556.79;;;16.73;56.72
50302;BME280;36550;50.472;19.744;2023-05-28T07:33:25;98555.25;;;16.83;56.56
50302;BME280;36550;50.472;19.744;2023-05-28T07:36:09;98555.12;;;16.91;55.65
50302;BME280;36550;50.472;19.744;2023-05-28T07:38:54;98552.70;;;16.99;55.01
50302;BME280;36550;50.472;19.744;2023-05-28T07:41:38;98554.78;;;17.07;55.14
50302;BME280;36550;50.472;19.744;2023-05-28T07:44:22;98555.36;;;17.15;54.84
50302;BME280;36550;50.472;19.744;2023-05-28T07:47:06;98549.92;;;17.21;54.31
50302;BME280;36550;50.472;19.744;2023-05-28T07:49:50;98542.21;;;17.27;53.62
50302;BME280;36550;50.472;19.744;2023-05-28T07:52:34;98544.50;;;17.35;53.44
50302;BME280;36550;50.472;19.744;2023-05-28T07:55:18;98538.40;;;17.39;53.06
50302;BME280;36550;50.472;19.744;2023-05-28T07:58:02;98534.21;;;17.44;52.70
50302;BME280;36550;50.472;19.744;2023-05-28T08:00:46;98532.04;;;17.48;51.21
50302;BME280;36550;50.472;19.744;2023-05-28T08:03:30;98533.90;;;17.51;51.36
50302;BME280;36550;50.472;19.744;2023-05-28T08:06:14;98533.89;;;17.53;50.80
50302;BME280;36550;50.472;19.744;2023-05-28T08:08:58;98535.11;;;17.55;50.89
50302;BME280;36550;50.472;19.744;2023-05-28T08:11:43;98528.73;;;17.57;50.06
50302;BME280;36550;50.472;19.744;2023-05-28T08:14:27;98533.62;;;17.61;50.35
50302;BME280;36550;50.472;19.744;2023-05-28T08:17:11;98535.73;;;17.66;50.47
50302;BME280;36550;50.472;19.744;2023-05-28T08:19:55;98531.53;;;17.70;49.94
50302;BME280;36550;50.472;19.744;2023-05-28T08:22:39;98530.27;;;17.75;50.22
50302;BME280;36550;50.472;19.744;2023-05-28T08:25:24;98533.11;;;17.79;50.33
50302;BME280;36550;50.472;19.744;2023-05-28T08:28:08;98533.91;;;17.84;49.71
50302;BME280;36550;50.472;19.744;2023-05-28T08:30:53;98532.11;;;17.86;49.73
50302;BME280;36550;50.472;19.744;2023-05-28T08:33:37;98529.36;;;17.87;49.18
50302;BME280;36550;50.472;19.744;2023-05-28T08:36:21;98524.85;;;17.89;49.36
50302;BME280;36550;50.472;19.744;2023-05-28T08:39:05;98527.92;;;17.92;48.99
50302;BME280;36550;50.472;19.744;2023-05-28T08:41:52;98520.86;;;17.89;48.66
50302;BME280;36550;50.472;19.744;2023-05-28T08:44:36;98522.61;;;17.90;48.75
50302;BME280;36550;50.472;19.744;2023-05-28T08:47:21;98520.58;;;17.92;48.88
50302;BME280;36550;50.472;19.744;2023-05-28T08:50:06;98518.77;;;17.96;48.51
50302;BME280;36550;50.472;19.744;2023-05-28T08:52:51;98518.29;;;17.97;48.20
50302;BME280;36550;50.472;19.744;2023-05-28T08:55:35;98520.46;;;17.99;47.66
50302;BME280;36550;50.472;19.744;2023-05-28T08:58:20;98522.33;;;17.98;47.59
50302;BME280;36550;50.472;19.744;2023-05-28T09:01:05;98523.44;;;17.97;47.26
50302;BME280;36550;50.472;19.744;2023-05-28T09:03:52;98519.57;;;17.94;47.11
50302;BME280;36550;50.472;19.744;2023-05-28T09:06:38;98516.16;;;17.95;47.32
50302;BME280;36550;50.472;19.744;2023-05-28T09:09:23;98516.58;;;18.01;47.49
50302;BME280;36550;50.472;19.744;2023-05-28T09:12:12;98508.49;;;18.06;47.25
50302;BME280;36550;50.472;19.744;2023-05-28T09:14:56;98509.27;;;18.09;46.72
50302;BME280;36550;50.472;19.744;2023-05-28T09:17:39;98502.30;;;18.13;46.53
50302;BME280;36550;50.472;19.744;2023-05-28T09:20:24;98505.74;;;18.16;46.96
50302;BME280;36550;50.472;19.744;2023-05-28T09:23:08;98501.95;;;18.21;47.07
50302;BME280;36550;50.472;19.744;2023-05-28T09:25:54;98496.14;;;18.24;46.62
50302;BME280;36550;50.472;19.744;2023-05-28T09:28:42;98499.23;;;18.24;45.85
50302;BME280;36550;50.472;19.744;2023-05-28T09:31:28;98493.71;;;18.21;46.01
50302;BME280;36550;50.472;19.744;2023-05-28T09:34:13;98491.55;;;18.21;46.14
50302;BME280;36550;50.472;19.744;2023-05-28T09:37:03;98485.64;;;18.22;46.45
50302;BME280;36550;50.472;19.744;2023-05-28T09:39:59;98483.44;;;18.26;46.85
50302;BME280;36550;50.472;19.744;2023-05-28T09:42:44;98484.20;;;18.35;46.91
50302;BME280;36550;50.472;19.744;2023-05-28T09:45:27;98479.98;;;18.39;46.81
50302;BME280;36550;50.472;19.744;2023-05-28T09:48:12;98478.62;;;18.44;46.78
50302;BME280;36550;50.472;19.744;2023-05-28T09:50:56;98471.91;;;18.48;46.67
50302;BME280;36550;50.472;19.744;2023-05-28T09:53:43;98473.70;;;18.51;46.02
50302;BME280;36550;50.472;19.744;2023-05-28T09:56:29;98467.60;;;18.46;45.77
50302;BME280;36550;50.472;19.744;2023-05-28T09:59:16;98461.20;;;18.44;46.09
50302;BME280;36550;50.472;19.744;2023-05-28T10:05:07;98461.78;;;18.52;46.09
50302;BME280;36550;50.472;19.744;2023-05-28T10:07:52;98462.46;;;18.54;45.87
50302;BME280;36550;50.472;19.744;2023-05-28T10:10:37;98465.02;;;18.52;45.05
50302;BME280;36550;50.472;19.744;2023-05-28T10:13:24;98463.40;;;18.47;44.10
50302;BME280;36550;50.472;19.744;2023-05-28T10:16:09;98462.06;;;18.39;44.28
50302;BME280;36550;50.472;19.744;2023-05-28T10:18:55;98462.39;;;18.37;44.75
50302;BME280;36550;50.472;19.744;2023-05-28T10:21:40;98468.23;;;18.37;44.83
50302;BME280;36550;50.472;19.744;2023-05-28T10:24:24;98466.16;;;18.38;45.09
50302;BME280;36550;50.472;19.744;2023-05-28T10:27:15;98463.02;;;18.40;45.18
50302;BME280;36550;50.472;19.744;2023-05-28T10:30:03;98459.55;;;18.42;44.45
50302;BME280;36550;50.472;19.744;2023-05-28T10:32:47;98462.01;;;18.41;44.45
50302;BME280;36550;50.472;19.744;2023-05-28T10:35:35;98459.27;;;18.43;44.56
50302;BME280;36550;50.472;19.744;2023-05-28T10:38:21;98459.09;;;18.49;44.72
50302;BME280;36550;50.472;19.744;2023-05-28T10:41:05;98457.96;;;18.51;44.62
50302;BME280;36550;50.472;19.744;2023-05-28T10:43:50;98453.05;;;18.53;44.57
50302;BME280;36550;50.472;19.744;2023-05-28T10:46:36;98449.63;;;18.58;44.89
50302;BME280;36550;50.472;19.744;2023-05-28T10:49:21;98450.85;;;18.67;45.06
50302;BME280;36550;50.472;19.744;2023-05-28T10:52:05;98458.52;;;18.73;44.44
50302;BME280;36550;50.472;19.744;2023-05-28T10:54:51;98457.83;;;18.73;43.50
50302;BME280;36550;50.472;19.744;2023-05-28T10:57:47;98458.36;;;18.71;43.56
50302;BME280;36550;50.472;19.744;2023-05-28T11:00:39;98457.33;;;18.74;44.03
50302;BME280;36550;50.472;19.744;2023-05-28T11:03:43;98456.08;;;18.81;44.34
50302;BME280;36550;50.472;19.744;2023-05-28T11:06:28;98457.35;;;18.91;44.33
50302;BME280;36550;50.472;19.744;2023-05-28T11:09:12;98456.26;;;18.95;43.82
50302;BME280;36550;50.472;19.744;2023-05-28T11:12:00;98454.80;;;18.99;43.94
50302;BME280;36550;50.472;19.744;2023-05-28T11:14:45;98451.77;;;19.04;43.68
50302;BME280;36550;50.472;19.744;2023-05-28T11:17:35;98452.65;;;19.07;43.68
50302;BME280;36550;50.472;19.744;2023-05-28T11:20:24;98441.99;;;19.10;43.48
50302;BME280;36550;50.472;19.744;2023-05-28T11:23:15;98433.39;;;19.13;43.77
50302;BME280;36550;50.472;19.744;2023-05-28T11:26:05;98438.41;;;19.17;42.99
50302;BME280;36550;50.472;19.744;2023-05-28T11:28:50;98441.14;;;19.14;42.61
50302;BME280;36550;50.472;19.744;2023-05-28T11:31:41;98444.83;;;19.08;42.26
50302;BME280;36550;50.472;19.744;2023-05-28T11:34:26;98440.06;;;18.98;41.92
50302;BME280;36550;50.472;19.744;2023-05-28T11:37:09;98435.92;;;18.90;42.17
50302;BME280;36550;50.472;19.744;2023-05-28T11:39:56;98435.21;;;18.85;42.60
50302;BME280;36550;50.472;19.744;2023-05-28T11:42:41;98431.46;;;18.83;42.66
50302;BME280;36550;50.472;19.744;2023-05-28T11:45:25;98433.36;;;18.85;42.94
50302;BME280;36550;50.472;19.744;2023-05-28T11:48:12;98427.80;;;18.89;42.80
50302;BME280;36550;50.472;19.744;2023-05-28T11:51:00;98426.64;;;18.92;42.86
50302;BME280;36550;50.472;19.744;2023-05-28T11:53:45;98423.20;;;18.99;43.28
50302;BME280;36550;50.472;19.744;2023-05-28T11:56:30;98421.76;;;19.04;43.25
50302;BME280;36550;50.472;19.744;2023-05-28T11:59:15;98422.41;;;19.10;43.58
50302;BME280;36550;50.472;19.744;2023-05-28T12:02:09;98422.21;;;19.15;42.71
50302;BME280;36550;50.472;19.744;2023-05-28T12:04:59;98425.43;;;19.17;42.90
50302;BME280;36550;50.472;19.744;2023-05-28T12:07:51;98425.40;;;19.18;42.56
50302;BME280;36550;50.472;19.744;2023-05-28T12:10:36;98423.66;;;19.17;42.54
50302;BME280;36550;50.472;19.744;2023-05-28T12:13:20;98417.33;;;19.19;42.94
50302;BME280;36550;50.472;19.744;2023-05-28T12:19:00;98421.05;;;19.23;42.55
50302;BME280;36550;50.472;19.744;2023-05-28T12:21:44;98417.27;;;19.25;42.65
50302;BME280;36550;50.472;19.744;2023-05-28T12:24:28;98414.95;;;19.27;42.96
50302;BME280;36550;50.472;19.744;2023-05-28T12:27:12;98418.23;;;19.29;42.43
50302;BME280;36550;50.472;19.744;2023-05-28T12:29:56;98416.95;;;19.29;42.32
50302;BME280;36550;50.472;19.744;2023-05-28T12:32:40;98415.98;;;19.27;41.77
50302;BME280;36550;50.472;19.744;2023-05-28T12:35:24;98411.06;;;19.22;42.09
50302;BME280;36550;50.472;19.744;2023-05-28T12:38:09;98412.23;;;19.24;42.14
50302;BME280;36550;50.472;19.744;2023-05-28T12:40:53;98416.27;;;19.23;42.04
50302;BME280;36550;50.472;19.744;2023-05-28T12:43:37;98414.52;;;19.23;42.20
50302;BME280;36550;50.472;19.744;2023-05-28T12:46:21;98415.06;;;19.22;42.16
50302;BME280;36550;50.472;19.744;2023-05-28T12:49:05;98413.37;;;19.20;42.09
50302;BME280;36550;50.472;19.744;2023-05-28T12:51:49;98414.23;;;19.19;42.27
50302;BME280;36550;50.472;19.744;2023-05-28T12:54:34;98412.36;;;19.19;42.38
50302;BME280;36550;50.472;19.744;2023-05-28T12:57:18;98411.04;;;19.18;42.17
50302;BME280;36550;50.472;19.744;2023-05-28T13:00:02;98402.66;;;19.16;42.05
50302;BME280;36550;50.472;19.744;2023-05-28T13:02:54;98403.22;;;19.14;42.19
50302;BME280;36550;50.472;19.744;2023-05-28T13:05:38;98402.89;;;19.15;42.25
50302;BME280;36550;50.472;19.744;2023-05-28T13:08:22;98398.20;;;19.17;42.42
50302;BME280;36550;50.472;19.744;2023-05-28T13:11:06;98399.91;;;19.19;42.19
50302;BME280;36550;50.472;19.744;2023-05-28T13:13:50;98394.12;;;19.20;42.25
50302;BME280;36550;50.472;19.744;2023-05-28T13:16:35;98396.55;;;19.21;41.74
50302;BME280;36550;50.472;19.744;2023-05-28T13:19:19;98389.80;;;19.20;41.57
50302;BME280;36550;50.472;19.744;2023-05-28T13:22:03;98386.94;;;19.18;41.23
50302;BME280;36550;50.472;19.744;2023-05-28T13:24:47;98381.70;;;19.16;41.08
50302;BME280;36550;50.472;19.744;2023-05-28T13:27:31;98380.33;;;19.14;41.01
50302;BME280;36550;50.472;19.744;2023-05-28T13:30:15;98372.60;;;19.14;41.63
50302;BME280;36550;50.472;19.744;2023-05-28T13:32:59;98372.04;;;19.18;41.69
50302;BME280;36550;50.472;19.744;2023-05-28T13:35:43;98364.47;;;19.20;41.50
50302;BME280;36550;50.472;19.744;2023-05-28T13:38:27;98361.08;;;19.24;41.50
50302;BME280;36550;50.472;19.744;2023-05-28T13:41:12;98360.46;;;19.26;41.40
50302;BME280;36550;50.472;19.744;2023-05-28T13:43:56;98356.33;;;19.30;41.12
50302;BME280;36550;50.472;19.744;2023-05-28T13:46:40;98352.98;;;19.35;41.58
50302;BME280;36550;50.472;19.744;2023-05-28T13:49:24;98351.44;;;19.40;41.60
50302;BME280;36550;50.472;19.744;2023-05-28T13:52:09;98351.14;;;19.41;41.23
50302;BME280;36550;50.472;19.744;2023-05-28T13:54:53;98348.98;;;19.45;41.86
50302;BME280;36550;50.472;19.744;2023-05-28T13:57:37;98347.30;;;19.48;41.80
50302;BME280;36550;50.472;19.744;2023-05-28T14:00:21;98346.27;;;19.51;41.75
50302;BME280;36550;50.472;19.744;2023-05-28T14:03:05;98343.35;;;19.53;41.75
50302;BME280;36550;50.472;19.744;2023-05-28T14:05:49;98341.63;;;19.55;41.65
50302;BME280;36550;50.472;19.744;2023-05-28T14:08:33;98333.13;;;19.56;41.69
50302;BME280;36550;50.472;19.744;2023-05-28T14:11:17;98330.58;;;19.57;41.53
50302;BME280;36550;50.472;19.744;2023-05-28T14:14:01;98331.13;;;19.60;41.63
50302;BME280;36550;50.472;19.744;2023-05-28T14:16:46;98321.85;;;19.61;41.18
50302;BME280;36550;50.472;19.744;2023-05-28T14:19:30;98326.58;;;19.61;41.11
50302;BME280;36550;50.472;19.744;2023-05-28T14:22:13;98326.70;;;19.60;40.71
50302;BME280;36550;50.472;19.744;2023-05-28T14:24:58;98324.66;;;19.62;40.73
50302;BME280;36550;50.472;19.744;2023-05-28T14:27:41;98321.27;;;19.61;40.24
50302;BME280;36550;50.472;19.744;2023-05-28T14:30:25;98316.84;;;19.61;40.43